Time;durP1;ratioP1;P1;durP2;ratioP2;P2;SDS_P1;SDS_P2;PMS_P1;PMS_P2;Temp;Humidity;BMP_temperature;BMP_pressure;BME280_temperature;BME280_humidity;BME280_pressure;Samples;Min_cycle;Max_cycle;Signal;HPM_P1;HPM_P2
2022/01/20 00:03:31;;;;;;;33.20;6.30;;;;;;;;;;4974218;28;20214;-50
2022/01/20 00:27:49;;;;;;;22.33;5.47;;;;;;;;;;4973190;28;20228;-49
2022/01/20 00:35:29;;;;;;;20.65;4.75;;;;;;;;;;4972719;28;20180;-48
2022/01/20 00:37:55;;;;;;;22.35;4.13;;;;;;;;;;4991274;28;20180;-47
2022/01/20 00:40:21;;;;;;;27.40;4.90;;;;;;;;;;4991749;28;20520;-48
2022/01/20 00:42:47;;;;;;;13.80;3.97;;;;;;;;;;4991691;28;20870;-48
2022/01/20 00:45:15;;;;;;;16.52;4.30;;;;;;;;;;4991754;28;20208;-47
2022/01/20 00:47:42;;;;;;;20.77;5.15;;;;;;;;;;4991845;28;20204;-47
2022/01/20 00:50:10;;;;;;;21.58;5.00;;;;;;;;;;4991456;28;20256;-48
2022/01/20 00:52:36;;;;;;;21.40;5.65;;;;;;;;;;4991637;28;20165;-48
2022/01/20 00:55:03;;;;;;;31.83;5.57;;;;;;;;;;4991596;28;20199;-48
2022/01/20 00:57:28;;;;;;;29.35;6.75;;;;;;;;;;4991540;28;20173;-48
2022/01/20 00:59:55;;;;;;;32.37;5.67;;;;;;;;;;4989850;28;20184;-47
2022/01/20 01:02:21;;;;;;;32.63;6.28;;;;;;;;;;4988327;28;20416;-48
2022/01/20 01:04:47;;;;;;;27.77;7.07;;;;;;;;;;4991425;28;20200;-48
2022/01/20 01:09:44;;;;;;;21.00;5.70;;;;;;;;;;4991224;28;20424;-48
2022/01/20 01:12:16;;;;;;;26.27;6.30;;;;;;;;;;4991407;28;20229;-49
2022/01/20 01:14:47;;;;;;;29.60;7.05;;;;;;;;;;4991466;28;20180;-48
2022/01/20 01:20:19;;;;;;;32.45;6.05;;;;;;;;;;4995240;28;20192;-49
2022/01/20 01:22:34;;;;;;;22.80;5.85;;;;;;;;;;4993121;28;20184;-49
2022/01/20 01:25:01;;;;;;;21.90;5.87;;;;;;;;;;4995144;28;20196;-49
2022/01/20 01:27:33;;;;;;;41.13;5.63;;;;;;;;;;4991392;28;20784;-48
2022/01/20 01:32:51;;;;;;;26.33;6.13;;;;;;;;;;4995103;28;20894;-48
2022/01/20 01:35:15;;;;;;;19.00;5.50;;;;;;;;;;4994778;28;20183;-49
2022/01/20 01:40:11;;;;;;;21.15;6.47;;;;;;;;;;4995038;28;20177;-50
2022/01/20 01:42:47;;;;;;;22.80;6.43;;;;;;;;;;4995027;28;20243;-48
2022/01/20 01:45:21;;;;;;;26.08;6.40;;;;;;;;;;4995059;28;20161;-48
2022/01/20 01:47:47;;;;;;;20.67;5.35;;;;;;;;;;4995044;28;20247;-48
2022/01/20 01:50:14;;;;;;;23.77;6.13;;;;;;;;;;4994709;28;20165;-48
2022/01/20 01:52:40;;;;;;;30.48;6.40;;;;;;;;;;4994946;28;20166;-48
2022/01/20 01:55:07;;;;;;;37.13;6.97;;;;;;;;;;4995073;28;20633;-48
2022/01/20 01:57:33;;;;;;;32.38;6.25;;;;;;;;;;4990235;28;20417;-48
2022/01/20 01:59:59;;;;;;;15.20;4.85;;;;;;;;;;4994881;28;20173;-48
2022/01/20 02:02:25;;;;;;;21.50;5.70;;;;;;;;;;4994676;28;20534;-48
2022/01/20 02:04:51;;;;;;;27.90;6.53;;;;;;;;;;4994619;28;20184;-48
2022/01/20 02:07:58;;;;;;;23.85;6.60;;;;;;;;;;4993610;28;20197;-48
2022/01/20 02:18:43;;;;;;;27.13;5.47;;;;;;;;;;4994705;28;20200;-47
2022/01/20 02:21:09;;;;;;;23.00;5.28;;;;;;;;;;4994154;28;20536;-48
2022/01/20 02:23:35;;;;;;;36.03;5.38;;;;;;;;;;4994101;28;20197;-47
2022/01/20 02:26:01;;;;;;;23.13;5.73;;;;;;;;;;4994244;28;20538;-48
2022/01/20 02:28:27;;;;;;;19.13;5.70;;;;;;;;;;4988941;28;20472;-48
2022/01/20 02:30:54;;;;;;;17.58;4.60;;;;;;;;;;4993752;28;20458;-49
2022/01/20 02:33:30;;;;;;;19.45;5.47;;;;;;;;;;4993577;28;20185;-48
2022/01/20 02:35:59;;;;;;;31.60;4.93;;;;;;;;;;4994044;28;20161;-48
2022/01/20 02:38:37;;;;;;;29.63;5.32;;;;;;;;;;4994057;28;20166;-48
2022/01/20 02:46:35;;;;;;;25.90;4.95;;;;;;;;;;4994183;28;20263;-48
2022/01/20 02:49:01;;;;;;;27.13;5.00;;;;;;;;;;4993589;28;20228;-48
2022/01/20 02:51:27;;;;;;;18.58;4.55;;;;;;;;;;4993751;28;20243;-48
2022/01/20 02:53:53;;;;;;;21.42;4.88;;;;;;;;;;4993548;28;20624;-48
2022/01/20 02:56:19;;;;;;;28.00;5.30;;;;;;;;;;4993636;28;20173;-48
2022/01/20 02:58:45;;;;;;;10.60;3.80;;;;;;;;;;4992150;28;20435;-49
2022/01/20 03:01:11;;;;;;;21.38;4.82;;;;;;;;;;4993443;28;20173;-48
2022/01/20 03:03:37;;;;;;;17.13;5.10;;;;;;;;;;4993422;28;20195;-50
2022/01/20 03:06:04;;;;;;;25.27;4.57;;;;;;;;;;4979245;28;20277;-48
2022/01/20 03:08:30;;;;;;;23.45;4.55;;;;;;;;;;4954841;28;20414;-48
2022/01/20 03:10:56;;;;;;;19.20;3.83;;;;;;;;;;4954514;28;20548;-49
2022/01/20 03:13:23;;;;;;;20.63;4.18;;;;;;;;;;4954711;28;20191;-50
2022/01/20 03:15:49;;;;;;;20.77;4.78;;;;;;;;;;4954701;28;20179;-50
2022/01/20 03:18:15;;;;;;;15.38;3.95;;;;;;;;;;4954856;28;20187;-51
2022/01/20 03:20:41;;;;;;;17.98;4.88;;;;;;;;;;4954581;28;20249;-49
2022/01/20 03:23:07;;;;;;;25.90;4.72;;;;;;;;;;4954396;28;20879;-48
2022/01/20 03:25:33;;;;;;;12.90;4.07;;;;;;;;;;4954638;28;20177;-48
2022/01/20 03:27:59;;;;;;;18.38;5.22;;;;;;;;;;4986556;28;20435;-48
2022/01/20 03:30:26;;;;;;;14.88;5.72;;;;;;;;;;4992746;28;20188;-48
2022/01/20 03:32:53;;;;;;;14.40;3.92;;;;;;;;;;4988130;28;20679;-49
2022/01/20 03:35:19;;;;;;;8.68;3.40;;;;;;;;;;4992527;28;20165;-49
2022/01/20 03:37:45;;;;;;;18.50;4.78;;;;;;;;;;4993021;28;20161;-49
2022/01/20 03:40:11;;;;;;;15.43;3.67;;;;;;;;;;4991692;28;20234;-50
2022/01/20 03:42:38;;;;;;;6.13;3.30;;;;;;;;;;4992729;28;20405;-48
2022/01/20 03:45:05;;;;;;;16.95;3.75;;;;;;;;;;4992651;28;20603;-48
2022/01/20 03:47:31;;;;;;;18.38;4.38;;;;;;;;;;4992753;28;20192;-49
2022/01/20 03:52:29;;;;;;;14.20;3.22;;;;;;;;;;4992643;28;20224;-49
2022/01/20 03:54:55;;;;;;;12.65;4.07;;;;;;;;;;4992499;28;20559;-48
2022/01/20 03:57:21;;;;;;;17.45;3.58;;;;;;;;;;4992452;28;20686;-48
2022/01/20 03:59:47;;;;;;;12.63;3.65;;;;;;;;;;4991391;28;20161;-49
2022/01/20 04:02:13;;;;;;;8.37;3.00;;;;;;;;;;4988750;28;20674;-49
2022/01/20 04:04:39;;;;;;;5.25;2.80;;;;;;;;;;4992334;28;20489;-49
2022/01/20 04:07:05;;;;;;;14.30;3.13;;;;;;;;;;4992398;28;20724;-48
2022/01/20 04:09:32;;;;;;;12.52;4.45;;;;;;;;;;4992214;28;20880;-49
2022/01/20 04:11:58;;;;;;;9.68;2.50;;;;;;;;;;4992081;28;20212;-50
2022/01/20 04:14:26;;;;;;;18.58;3.25;;;;;;;;;;4992234;28;20196;-48
2022/01/20 04:17:04;;;;;;;5.70;2.63;;;;;;;;;;4992252;28;20161;-48
2022/01/20 04:19:30;;;;;;;17.73;3.10;;;;;;;;;;4992041;28;20157;-48
2022/01/20 04:21:57;;;;;;;9.38;3.55;;;;;;;;;;4992091;28;20164;-50
2022/01/20 04:24:23;;;;;;;10.35;3.22;;;;;;;;;;4991867;28;20262;-49
2022/01/20 04:26:49;;;;;;;9.68;3.90;;;;;;;;;;4990658;28;20667;-50
2022/01/20 04:29:16;;;;;;;14.68;3.67;;;;;;;;;;4991832;28;20825;-50
2022/01/20 04:31:42;;;;;;;13.50;3.13;;;;;;;;;;4991918;28;20205;-48
2022/01/20 04:34:09;;;;;;;9.88;2.90;;;;;;;;;;4992068;28;20204;-48
2022/01/20 04:36:38;;;;;;;16.83;3.90;;;;;;;;;;4992188;28;20175;-48
2022/01/20 04:39:06;;;;;;;7.38;3.75;;;;;;;;;;4991918;28;20189;-50
2022/01/20 04:41:32;;;;;;;15.43;3.58;;;;;;;;;;4992232;28;20165;-48
2022/01/20 04:43:59;;;;;;;16.70;5.50;;;;;;;;;;4991910;28;20216;-48
2022/01/20 04:57:00;;;;;;;10.55;4.30;;;;;;;;;;4991684;28;20250;-47
2022/01/20 04:57:21;;;;;;;13.63;3.55;;;;;;;;;;4991603;28;20184;-48
2022/01/20 04:59:48;;;;;;;12.20;2.80;;;;;;;;;;4991432;28;20180;-48
2022/01/20 05:02:14;;;;;;;11.65;3.22;;;;;;;;;;4991536;28;20782;-49
2022/01/20 05:04:41;;;;;;;12.43;3.50;;;;;;;;;;4991637;28;20185;-48
2022/01/20 05:07:08;;;;;;;15.95;3.30;;;;;;;;;;4991637;28;20180;-48
2022/01/20 05:09:35;;;;;;;14.00;3.83;;;;;;;;;;4991384;28;20675;-48
2022/01/20 05:12:05;;;;;;;14.93;3.40;;;;;;;;;;4991435;28;20189;-48
2022/01/20 05:14:32;;;;;;;27.17;4.40;;;;;;;;;;4991521;28;20188;-49
2022/01/20 05:16:58;;;;;;;11.02;3.78;;;;;;;;;;4991529;28;20196;-49
2022/01/20 05:19:25;;;;;;;8.73;3.03;;;;;;;;;;4991315;28;20210;-48
2022/01/20 05:21:51;;;;;;;18.90;5.85;;;;;;;;;;4991335;28;20177;-51
2022/01/20 05:24:17;;;;;;;11.90;3.77;;;;;;;;;;4988783;28;20223;-49
2022/01/20 05:26:43;;;;;;;13.43;4.00;;;;;;;;;;4991458;28;20419;-48
2022/01/20 05:29:09;;;;;;;17.70;5.30;;;;;;;;;;4991191;28;20770;-48
2022/01/20 05:31:35;;;;;;;10.17;4.97;;;;;;;;;;4991295;28;20459;-50
2022/01/20 05:34:01;;;;;;;15.35;5.20;;;;;;;;;;4991402;28;20432;-48
2022/01/20 05:36:27;;;;;;;6.72;4.57;;;;;;;;;;4991376;28;20807;-47
2022/01/20 05:38:53;;;;;;;16.40;5.50;;;;;;;;;;4991160;28;20176;-48
2022/01/20 05:41:20;;;;;;;6.20;4.60;;;;;;;;;;4991283;28;20483;-48
2022/01/20 05:43:46;;;;;;;18.55;5.40;;;;;;;;;;4991161;28;20951;-48
2022/01/20 05:46:14;;;;;;;13.25;5.40;;;;;;;;;;4991261;28;20173;-48
2022/01/20 05:48:46;;;;;;;9.38;4.97;;;;;;;;;;4991285;28;20189;-48
2022/01/20 05:51:12;;;;;;;7.82;4.93;;;;;;;;;;4987092;28;20676;-48
2022/01/20 05:53:38;;;;;;;9.82;4.22;;;;;;;;;;4989976;28;20201;-48
2022/01/20 05:56:04;;;;;;;5.47;3.97;;;;;;;;;;4989859;28;20224;-48
2022/01/20 05:58:33;;;;;;;7.28;3.78;;;;;;;;;;4991216;28;20495;-48
2022/01/20 06:00:59;;;;;;;9.77;4.05;;;;;;;;;;4990945;28;20227;-48
2022/01/20 06:03:37;;;;;;;4.88;3.05;;;;;;;;;;4993176;28;20201;-50
2022/01/20 06:06:04;;;;;;;7.93;2.80;;;;;;;;;;4996104;28;20221;-49
2022/01/20 06:08:31;;;;;;;4.95;3.00;;;;;;;;;;4995973;28;20204;-48
2022/01/20 06:10:57;;;;;;;6.60;3.67;;;;;;;;;;4995538;28;20287;-49
2022/01/20 06:13:22;;;;;;;8.10;3.03;;;;;;;;;;4995901;28;20209;-49
2022/01/20 06:15:48;;;;;;;13.23;3.50;;;;;;;;;;4995826;28;20893;-49
2022/01/20 06:18:15;;;;;;;19.60;4.10;;;;;;;;;;4995806;28;20400;-48
2022/01/20 06:20:41;;;;;;;11.07;3.20;;;;;;;;;;4995804;28;20415;-48
2022/01/20 06:23:08;;;;;;;6.43;2.75;;;;;;;;;;4995675;28;20680;-48
2022/01/20 06:25:34;;;;;;;8.98;3.30;;;;;;;;;;4995785;28;20644;-48
2022/01/20 06:28:00;;;;;;;10.57;3.60;;;;;;;;;;4996003;28;20184;-48
2022/01/20 06:30:26;;;;;;;9.40;2.30;;;;;;;;;;4995501;28;20663;-49
2022/01/20 06:32:53;;;;;;;7.57;3.28;;;;;;;;;;4995740;28;20169;-49
2022/01/20 06:35:19;;;;;;;8.70;2.85;;;;;;;;;;4995923;28;20173;-49
2022/01/20 06:37:45;;;;;;;8.55;2.35;;;;;;;;;;4995218;28;20172;-48
2022/01/20 06:40:11;;;;;;;12.87;3.33;;;;;;;;;;4994865;28;20231;-49
2022/01/20 06:42:37;;;;;;;11.55;3.05;;;;;;;;;;4995379;28;20415;-48
2022/01/20 06:45:04;;;;;;;6.93;2.50;;;;;;;;;;4995092;28;20193;-49
2022/01/20 06:47:30;;;;;;;4.28;2.35;;;;;;;;;;4995294;28;20780;-49
2022/01/20 06:49:56;;;;;;;10.90;2.67;;;;;;;;;;4995006;28;20663;-48
2022/01/20 06:52:22;;;;;;;4.18;2.63;;;;;;;;;;4992319;28;20255;-48
2022/01/20 06:54:48;;;;;;;6.60;1.90;;;;;;;;;;4994820;28;20595;-50
2022/01/20 06:57:14;;;;;;;14.23;3.03;;;;;;;;;;4995414;28;20418;-49
2022/01/20 06:59:40;;;;;;;12.67;3.43;;;;;;;;;;4994912;28;20161;-49
2022/01/20 07:02:06;;;;;;;6.23;2.60;;;;;;;;;;4994788;28;20767;-50
2022/01/20 07:04:32;;;;;;;5.07;2.07;;;;;;;;;;4994530;28;20520;-49
2022/01/20 07:06:59;;;;;;;10.20;2.40;;;;;;;;;;4992897;28;20643;-49
2022/01/20 07:09:25;;;;;;;12.68;1.92;;;;;;;;;;4994474;28;20192;-49
2022/01/20 07:11:51;;;;;;;18.05;3.53;;;;;;;;;;4994686;28;20212;-49
2022/01/20 07:14:17;;;;;;;7.90;2.50;;;;;;;;;;4994215;28;20192;-49
2022/01/20 07:16:43;;;;;;;14.70;2.05;;;;;;;;;;4994428;28;20176;-49
2022/01/20 07:19:09;;;;;;;10.30;3.13;;;;;;;;;;4994277;28;20533;-48
2022/01/20 07:21:35;;;;;;;9.25;2.95;;;;;;;;;;4994122;28;20450;-48
2022/01/20 07:24:01;;;;;;;11.57;2.50;;;;;;;;;;4993898;28;20212;-49
2022/01/20 07:26:27;;;;;;;8.80;2.80;;;;;;;;;;4990026;28;20439;-49
2022/01/20 07:28:53;;;;;;;12.03;2.27;;;;;;;;;;4984187;28;20413;-48
2022/01/20 07:31:22;;;;;;;35.93;2.70;;;;;;;;;;4974204;28;20488;-48
2022/01/20 07:33:49;;;;;;;8.48;2.53;;;;;;;;;;4973780;28;20500;-49
2022/01/20 07:36:15;;;;;;;13.32;2.10;;;;;;;;;;4974162;28;20205;-49
2022/01/20 07:38:41;;;;;;;15.57;2.83;;;;;;;;;;4974251;28;20178;-49
2022/01/20 07:41:07;;;;;;;6.10;2.03;;;;;;;;;;4974196;28;20412;-48
2022/01/20 07:43:33;;;;;;;16.63;2.83;;;;;;;;;;4973857;28;20437;-48
2022/01/20 07:45:59;;;;;;;16.50;3.10;;;;;;;;;;4973982;28;20488;-48
2022/01/20 07:48:24;;;;;;;12.03;3.23;;;;;;;;;;4974145;28;20885;-49
2022/01/20 07:50:51;;;;;;;8.37;2.37;;;;;;;;;;4985165;28;20461;-48
2022/01/20 07:53:17;;;;;;;5.93;2.25;;;;;;;;;;4993021;28;20451;-48
2022/01/20 07:55:42;;;;;;;6.68;2.28;;;;;;;;;;4992876;28;20695;-49
2022/01/20 07:58:08;;;;;;;14.47;3.13;;;;;;;;;;4980433;28;20213;-49
2022/01/20 08:00:34;;;;;;;12.35;2.85;;;;;;;;;;4972843;28;20409;-48
2022/01/20 08:03:00;;;;;;;13.03;4.43;;;;;;;;;;4973538;28;20653;-48
2022/01/20 08:05:26;;;;;;;10.07;2.43;;;;;;;;;;4973575;28;20439;-48
2022/01/20 08:07:52;;;;;;;7.70;2.53;;;;;;;;;;4973206;28;20422;-48
2022/01/20 08:10:18;;;;;;;11.57;2.27;;;;;;;;;;4972882;28;20804;-49
2022/01/20 08:12:44;;;;;;;8.02;2.30;;;;;;;;;;4972906;28;20459;-48
2022/01/20 08:15:12;;;;;;;10.40;2.70;;;;;;;;;;4973115;28;20177;-48
2022/01/20 08:17:39;;;;;;;5.82;1.90;;;;;;;;;;4973162;28;20397;-49
2022/01/20 08:20:06;;;;;;;12.75;2.35;;;;;;;;;;4981812;28;20841;-49
2022/01/20 08:22:34;;;;;;;8.02;2.30;;;;;;;;;;4992724;28;20180;-49
2022/01/20 08:25:07;;;;;;;12.55;2.50;;;;;;;;;;4992458;28;20204;-48
2022/01/20 08:27:33;;;;;;;5.38;1.52;;;;;;;;;;4992100;28;20169;-48
2022/01/20 08:29:59;;;;;;;20.75;2.70;;;;;;;;;;4992265;28;20165;-49
2022/01/20 08:32:25;;;;;;;8.10;2.00;;;;;;;;;;4992287;28;20230;-48
2022/01/20 08:34:51;;;;;;;20.27;3.60;;;;;;;;;;4992388;28;20509;-49
2022/01/20 08:37:17;;;;;;;13.00;2.50;;;;;;;;;;4971538;28;20258;-49
2022/01/20 08:39:46;;;;;;;6.30;1.60;;;;;;;;;;4972649;28;20397;-49
2022/01/20 08:42:13;;;;;;;13.90;2.33;;;;;;;;;;4972717;28;20444;-49
2022/01/20 08:44:40;;;;;;;12.90;3.28;;;;;;;;;;4973060;28;20189;-49
2022/01/20 08:47:14;;;;;;;15.52;2.65;;;;;;;;;;4972798;28;20545;-49
2022/01/20 08:49:40;;;;;;;10.45;2.25;;;;;;;;;;4974770;28;20212;-48
2022/01/20 08:52:06;;;;;;;7.40;2.47;;;;;;;;;;4976226;28;20232;-48
2022/01/20 08:54:32;;;;;;;12.25;2.53;;;;;;;;;;4979919;28;20484;-48
2022/01/20 08:56:58;;;;;;;4.70;2.23;;;;;;;;;;4979740;28;20221;-49
2022/01/20 08:59:25;;;;;;;9.43;2.30;;;;;;;;;;4976966;28;20571;-49
2022/01/20 09:01:51;;;;;;;16.90;2.38;;;;;;;;;;4991853;28;20416;-49
2022/01/20 09:04:17;;;;;;;13.43;3.07;;;;;;;;;;4992277;28;20204;-49
2022/01/20 09:06:43;;;;;;;5.23;2.07;;;;;;;;;;4992154;28;20408;-49
2022/01/20 09:09:09;;;;;;;9.73;2.00;;;;;;;;;;4991903;28;20517;-49
2022/01/20 09:11:38;;;;;;;5.60;2.03;;;;;;;;;;4991812;28;20514;-48
2022/01/20 09:16:49;;;;;;;10.40;1.77;;;;;;;;;;4972633;28;20184;-49
2022/01/20 09:19:16;;;;;;;4.43;2.17;;;;;;;;;;4972293;28;20166;-48
2022/01/20 09:21:44;;;;;;;8.63;2.05;;;;;;;;;;4972308;28;20664;-48
2022/01/20 09:24:10;;;;;;;8.45;2.10;;;;;;;;;;4971863;28;20299;-49
2022/01/20 09:26:36;;;;;;;16.40;4.10;;;;;;;;;;4972158;28;20173;-48
2022/01/20 09:29:02;;;;;;;15.90;2.30;;;;;;;;;;4972195;28;20232;-49
2022/01/20 09:31:30;;;;;;;3.55;2.42;;;;;;;;;;4985077;28;20488;-49
2022/01/20 09:33:56;;;;;;;9.30;2.75;;;;;;;;;;4979289;28;20692;-49
2022/01/20 09:36:24;;;;;;;10.93;2.60;;;;;;;;;;4991422;28;20169;-49
2022/01/20 09:38:50;;;;;;;7.85;2.47;;;;;;;;;;4989899;28;20905;-49
2022/01/20 09:41:16;;;;;;;13.13;2.70;;;;;;;;;;4975664;28;20169;-49
2022/01/20 09:43:42;;;;;;;6.57;2.47;;;;;;;;;;4976432;28;20487;-48
2022/01/20 09:46:08;;;;;;;3.65;2.10;;;;;;;;;;4975357;28;20217;-49
2022/01/20 09:48:34;;;;;;;13.80;2.53;;;;;;;;;;4975347;28;20217;-49
2022/01/20 09:51:00;;;;;;;8.03;2.57;;;;;;;;;;4974804;28;20201;-49
2022/01/20 09:53:27;;;;;;;10.43;2.28;;;;;;;;;;4973668;28;20413;-49
2022/01/20 09:55:53;;;;;;;11.68;2.40;;;;;;;;;;4973483;28;20642;-49
2022/01/20 09:58:19;;;;;;;12.60;2.33;;;;;;;;;;4973974;28;20173;-48
2022/01/20 10:00:46;;;;;;;11.63;2.83;;;;;;;;;;4975845;28;20177;-49
2022/01/20 10:03:13;;;;;;;10.52;3.05;;;;;;;;;;4994297;28;20954;-49
2022/01/20 10:05:53;;;;;;;10.85;2.80;;;;;;;;;;4994127;28;20175;-49
2022/01/20 10:08:21;;;;;;;14.82;2.65;;;;;;;;;;4994569;28;20248;-49
2022/01/20 10:10:47;;;;;;;8.43;2.55;;;;;;;;;;4994034;28;20166;-49
2022/01/20 10:13:14;;;;;;;11.33;2.17;;;;;;;;;;4994326;28;20702;-49
2022/01/20 10:15:41;;;;;;;4.32;2.05;;;;;;;;;;4994215;28;20972;-49
2022/01/20 10:18:11;;;;;;;11.15;3.53;;;;;;;;;;4994413;28;20219;-49
2022/01/20 10:20:50;;;;;;;10.75;2.83;;;;;;;;;;4993986;28;20611;-48
2022/01/20 10:23:26;;;;;;;13.70;2.60;;;;;;;;;;4994065;28;20201;-49
2022/01/20 10:26:02;;;;;;;10.55;2.22;;;;;;;;;;4994043;28;20176;-48
2022/01/20 10:28:28;;;;;;;9.95;2.50;;;;;;;;;;4994180;28;20172;-49
2022/01/20 10:30:55;;;;;;;4.10;2.33;;;;;;;;;;4989950;28;20203;-49
2022/01/20 10:33:21;;;;;;;9.63;2.90;;;;;;;;;;4993039;28;20443;-49
2022/01/20 10:35:47;;;;;;;15.83;3.00;;;;;;;;;;4994379;28;20180;-49
2022/01/20 10:38:15;;;;;;;7.15;2.80;;;;;;;;;;4974324;28;20975;-48
2022/01/20 10:40:47;;;;;;;7.85;2.08;;;;;;;;;;4974444;28;20668;-49
2022/01/20 10:43:20;;;;;;;9.38;2.90;;;;;;;;;;4974748;28;20551;-48
2022/01/20 10:45:46;;;;;;;11.18;2.25;;;;;;;;;;4974770;28;20170;-48
2022/01/20 10:48:17;;;;;;;5.83;2.50;;;;;;;;;;4974608;28;20642;-49
2022/01/20 10:50:43;;;;;;;6.75;2.92;;;;;;;;;;4973861;28;20397;-49
2022/01/20 10:53:19;;;;;;;11.02;2.53;;;;;;;;;;4974104;28;20223;-49
2022/01/20 10:55:45;;;;;;;17.45;3.13;;;;;;;;;;4974247;28;20170;-49
2022/01/20 10:58:15;;;;;;;9.03;2.33;;;;;;;;;;4973454;28;20233;-48
2022/01/20 11:00:45;;;;;;;16.23;2.22;;;;;;;;;;4980355;28;20423;-49
2022/01/20 11:03:11;;;;;;;7.95;2.38;;;;;;;;;;4974354;28;20198;-48
2022/01/20 11:05:39;;;;;;;12.13;2.20;;;;;;;;;;4972449;28;20208;-48
2022/01/20 11:08:06;;;;;;;8.07;1.98;;;;;;;;;;4972371;28;20408;-48
2022/01/20 11:10:32;;;;;;;6.57;2.10;;;;;;;;;;4972252;28;20170;-49
2022/01/20 11:12:58;;;;;;;11.43;2.90;;;;;;;;;;4972439;28;20271;-48
2022/01/20 11:15:25;;;;;;;19.80;3.13;;;;;;;;;;4972340;28;20260;-49
2022/01/20 11:17:54;;;;;;;9.55;3.30;;;;;;;;;;4973182;28;20409;-48
2022/01/20 11:20:22;;;;;;;9.30;2.53;;;;;;;;;;4973538;28;20170;-49
2022/01/20 11:22:57;;;;;;;11.30;3.53;;;;;;;;;;4973842;28;20182;-49
2022/01/20 11:25:24;;;;;;;7.40;2.20;;;;;;;;;;4973842;28;20609;-48
2022/01/20 11:27:52;;;;;;;16.08;3.60;;;;;;;;;;4973716;28;20257;-50
2022/01/20 11:30:21;;;;;;;5.63;2.60;;;;;;;;;;4972389;28;20161;-49
2022/01/20 11:33:00;;;;;;;9.82;2.80;;;;;;;;;;4991542;28;20224;-49
2022/01/20 11:35:45;;;;;;;13.40;2.65;;;;;;;;;;4993007;28;20169;-49
2022/01/20 11:38:13;;;;;;;5.10;2.83;;;;;;;;;;4993169;28;20180;-50
2022/01/20 11:41:09;;;;;;;7.10;3.03;;;;;;;;;;4993399;28;20408;-50
2022/01/20 11:43:35;;;;;;;11.13;2.70;;;;;;;;;;4980426;28;20445;-50
2022/01/20 11:46:10;;;;;;;8.87;3.00;;;;;;;;;;4993146;28;20840;-49
2022/01/20 11:48:36;;;;;;;9.60;2.70;;;;;;;;;;4993090;28;20914;-49
2022/01/20 11:51:06;;;;;;;13.63;3.07;;;;;;;;;;4992796;28;20444;-49
2022/01/20 11:53:33;;;;;;;16.13;3.83;;;;;;;;;;4992548;28;20459;-49
2022/01/20 11:55:58;;;;;;;11.63;2.50;;;;;;;;;;4992747;28;20404;-49
2022/01/20 11:58:27;;;;;;;6.97;2.37;;;;;;;;;;4990196;28;20167;-48
2022/01/20 12:01:02;;;;;;;14.60;2.75;;;;;;;;;;4971066;28;20982;-48
2022/01/20 12:03:29;;;;;;;7.93;3.28;;;;;;;;;;4979866;28;20686;-49
2022/01/20 12:05:58;;;;;;;6.55;2.25;;;;;;;;;;4972815;28;20185;-49
2022/01/20 12:08:24;;;;;;;11.35;2.28;;;;;;;;;;4972143;28;20178;-47
2022/01/20 12:11:00;;;;;;;3.60;1.90;;;;;;;;;;4972515;28;20176;-48
2022/01/20 12:13:26;;;;;;;6.20;2.10;;;;;;;;;;4972667;28;20507;-47
2022/01/20 12:15:54;;;;;;;4.57;2.23;;;;;;;;;;4972399;28;20257;-48
2022/01/20 12:18:20;;;;;;;4.22;2.33;;;;;;;;;;4972021;28;20439;-50
2022/01/20 12:20:46;;;;;;;9.65;2.65;;;;;;;;;;4974230;28;20198;-48
2022/01/20 12:23:12;;;;;;;11.80;2.33;;;;;;;;;;4974327;28;20204;-48
2022/01/20 12:25:39;;;;;;;15.05;2.97;;;;;;;;;;4971068;28;20178;-47
2022/01/20 12:28:05;;;;;;;8.25;2.50;;;;;;;;;;4972559;28;20233;-47
2022/01/20 12:30:31;;;;;;;11.55;2.30;;;;;;;;;;4969645;28;20176;-49
2022/01/20 12:33:13;;;;;;;15.68;2.85;;;;;;;;;;4971305;28;20252;-48
2022/01/20 12:35:49;;;;;;;9.17;2.50;;;;;;;;;;4971453;28;20178;-48
2022/01/20 12:38:16;;;;;;;3.97;2.07;;;;;;;;;;4972540;28;21112;-49
2022/01/20 12:40:43;;;;;;;8.90;2.70;;;;;;;;;;4972047;28;20413;-50
2022/01/20 12:43:09;;;;;;;16.43;3.00;;;;;;;;;;4970501;28;20438;-49
2022/01/20 12:48:19;;;;;;;11.00;2.53;;;;;;;;;;4972380;28;20931;-50
2022/01/20 12:50:50;;;;;;;8.63;2.67;;;;;;;;;;4971830;28;20170;-48
2022/01/20 12:53:17;;;;;;;14.27;3.85;;;;;;;;;;4972012;28;20800;-49
2022/01/20 12:55:50;;;;;;;11.15;2.60;;;;;;;;;;4972133;28;20220;-50
2022/01/20 12:58:16;;;;;;;16.95;2.90;;;;;;;;;;4972699;28;20193;-49
2022/01/20 13:00:42;;;;;;;4.97;2.50;;;;;;;;;;4972966;28;20177;-49
2022/01/20 13:03:08;;;;;;;9.03;2.33;;;;;;;;;;4991645;28;20423;-49
2022/01/20 13:05:40;;;;;;;7.27;2.40;;;;;;;;;;4991856;28;20463;-49
2022/01/20 13:08:06;;;;;;;10.45;2.60;;;;;;;;;;4987670;28;20491;-49
2022/01/20 13:10:34;;;;;;;12.50;3.10;;;;;;;;;;4991634;28;20165;-49
2022/01/20 13:13:05;;;;;;;10.18;2.47;;;;;;;;;;4993891;28;20408;-49
2022/01/20 13:15:31;;;;;;;16.50;3.30;;;;;;;;;;4985521;28;20571;-49
2022/01/20 13:18:08;;;;;;;7.22;2.40;;;;;;;;;;4975925;28;20184;-49
2022/01/20 13:20:40;;;;;;;4.88;2.20;;;;;;;;;;4976052;28;20165;-50
2022/01/20 13:25:47;;;;;;;7.03;3.10;;;;;;;;;;4976012;28;20545;-48
2022/01/20 13:28:14;;;;;;;12.17;2.67;;;;;;;;;;4975901;28;20170;-49
2022/01/20 13:30:50;;;;;;;8.90;2.30;;;;;;;;;;4975258;28;20416;-47
2022/01/20 13:33:17;;;;;;;13.02;2.92;;;;;;;;;;4993676;28;20250;-49
2022/01/20 13:35:44;;;;;;;6.90;3.37;;;;;;;;;;4995011;28;20178;-50
2022/01/20 13:38:11;;;;;;;12.43;2.33;;;;;;;;;;4995246;28;20402;-49
2022/01/20 13:40:37;;;;;;;6.80;2.10;;;;;;;;;;4995037;28;20421;-49
2022/01/20 13:45:40;;;;;;;11.33;2.93;;;;;;;;;;4995182;28;20425;-50
2022/01/20 13:48:06;;;;;;;4.53;2.50;;;;;;;;;;4994942;28;20456;-49
2022/01/20 13:50:34;;;;;;;6.03;2.47;;;;;;;;;;4994755;28;20861;-48
2022/01/20 13:53:01;;;;;;;9.00;2.53;;;;;;;;;;4994700;28;20466;-48
2022/01/20 13:55:27;;;;;;;5.83;2.40;;;;;;;;;;4994721;28;20406;-49
2022/01/20 13:57:53;;;;;;;6.70;2.63;;;;;;;;;;4994901;28;20432;-48
2022/01/20 14:00:20;;;;;;;4.57;2.10;;;;;;;;;;4994582;28;20428;-48
2022/01/20 14:02:48;;;;;;;7.85;1.75;;;;;;;;;;4990584;28;20443;-48
2022/01/20 14:05:15;;;;;;;6.63;2.20;;;;;;;;;;4994621;28;20215;-48
2022/01/20 14:07:41;;;;;;;4.85;2.50;;;;;;;;;;4994731;28;20169;-48
2022/01/20 14:10:07;;;;;;;11.83;1.87;;;;;;;;;;4994479;28;20227;-49
2022/01/20 14:12:33;;;;;;;4.28;1.90;;;;;;;;;;4994470;28;20464;-48
2022/01/20 14:14:59;;;;;;;2.73;1.90;;;;;;;;;;4994816;28;20239;-49
2022/01/20 14:17:25;;;;;;;3.03;1.77;;;;;;;;;;4994643;28;20888;-48
2022/01/20 14:19:57;;;;;;;2.07;1.90;;;;;;;;;;4994098;28;20176;-48
2022/01/20 14:22:23;;;;;;;4.88;2.17;;;;;;;;;;4994390;28;20393;-49
2022/01/20 14:24:49;;;;;;;6.28;1.88;;;;;;;;;;4993309;28;20778;-48
2022/01/20 14:27:17;;;;;;;5.13;2.60;;;;;;;;;;4994376;28;20251;-49
2022/01/20 14:29:46;;;;;;;4.32;2.30;;;;;;;;;;4993996;28;20456;-49
2022/01/20 14:32:13;;;;;;;3.45;1.98;;;;;;;;;;4991502;28;20629;-48
2022/01/20 14:34:40;;;;;;;6.15;2.20;;;;;;;;;;4994088;28;20193;-49
2022/01/20 14:37:07;;;;;;;9.13;2.20;;;;;;;;;;4994201;28;20187;-49
2022/01/20 14:39:33;;;;;;;3.63;1.88;;;;;;;;;;4993964;28;20637;-48
2022/01/20 14:41:59;;;;;;;5.85;1.85;;;;;;;;;;4994034;28;20177;-48
2022/01/20 14:44:25;;;;;;;4.15;1.95;;;;;;;;;;4993915;28;20185;-49
2022/01/20 14:46:51;;;;;;;2.33;1.40;;;;;;;;;;4993878;28;20183;-48
2022/01/20 14:49:18;;;;;;;10.20;2.47;;;;;;;;;;4993691;28;20443;-48
2022/01/20 14:51:44;;;;;;;3.53;2.42;;;;;;;;;;4993682;28;20483;-47
2022/01/20 14:54:10;;;;;;;5.20;2.10;;;;;;;;;;4993839;28;20189;-49
2022/01/20 14:56:36;;;;;;;2.60;2.10;;;;;;;;;;4993783;28;20180;-48
2022/01/20 14:59:03;;;;;;;2.20;1.70;;;;;;;;;;4993502;28;20404;-49
2022/01/20 15:01:29;;;;;;;3.58;2.25;;;;;;;;;;4990803;28;20197;-48
2022/01/20 15:03:55;;;;;;;3.27;1.93;;;;;;;;;;4993527;28;20240;-49
2022/01/20 15:06:21;;;;;;;2.85;1.90;;;;;;;;;;4993612;28;20443;-48
2022/01/20 15:08:47;;;;;;;3.73;2.00;;;;;;;;;;4993468;28;20204;-49
2022/01/20 15:11:13;;;;;;;8.30;2.17;;;;;;;;;;4993219;28;20467;-49
2022/01/20 15:13:39;;;;;;;3.83;1.77;;;;;;;;;;4993287;28;20452;-49
2022/01/20 15:16:06;;;;;;;5.10;2.33;;;;;;;;;;4993367;28;20400;-49
2022/01/20 15:18:32;;;;;;;2.95;2.70;;;;;;;;;;4993364;28;20172;-49
2022/01/20 15:20:58;;;;;;;3.90;3.05;;;;;;;;;;4993043;28;20234;-48
2022/01/20 15:23:24;;;;;;;6.43;1.98;;;;;;;;;;4993176;28;20204;-49
2022/01/20 15:25:51;;;;;;;4.45;2.28;;;;;;;;;;4993390;28;20168;-49
2022/01/20 15:28:17;;;;;;;7.53;3.70;;;;;;;;;;4993138;28;20644;-48
2022/01/20 15:30:43;;;;;;;5.93;3.00;;;;;;;;;;4992915;28;20173;-48
2022/01/20 15:33:09;;;;;;;8.82;2.63;;;;;;;;;;4987846;28;20898;-48
2022/01/20 15:35:35;;;;;;;8.93;3.30;;;;;;;;;;4992974;28;20236;-49
2022/01/20 15:38:01;;;;;;;6.20;2.27;;;;;;;;;;4993048;28;20401;-49
2022/01/20 15:40:27;;;;;;;5.70;2.40;;;;;;;;;;4988211;28;20460;-49
2022/01/20 15:42:53;;;;;;;10.37;2.33;;;;;;;;;;4973138;28;20415;-48
2022/01/20 15:45:19;;;;;;;7.53;2.50;;;;;;;;;;4973308;28;20456;-49
2022/01/20 15:47:45;;;;;;;5.63;2.33;;;;;;;;;;4973247;28;20496;-49
2022/01/20 15:50:12;;;;;;;8.30;2.60;;;;;;;;;;4972983;28;20400;-49
2022/01/20 15:52:39;;;;;;;12.38;2.97;;;;;;;;;;4972998;28;20461;-48